Terminal Aerodrome Forecast
Issued by NWS

Home | Current Version | Previous Version | Text Only | Print | Product List | Glossary On
Versions: 1 2 3 4 5 6 7 8 9 10 11 12 13 14 15 16 17 18 19 20 21 22 23 24 25 26 27 28 29 30 31 32
000
FTUS45 KGJT 220957 AAA
TAFASE
TAF AMD
KASE 220957Z 2210/2306 21006KT P6SM VCSH SCT070 OVC100
      TEMPO 2210/2212 VRB04G15KT -SHRA OVC070
     FM221300 13005KT P6SM VCSH SCT070 BKN100
     FM221900 01006KT P6SM VCTS SCT070CB BKN100
     FM230200 18006KT P6SM VCSH SCT080 BKN110=

USA.gov is the U.S. government's official web portal to all federal, state and local government web resources and services.